Time;durP1;ratioP1;P1;durP2;ratioP2;P2;SDS_P1;SDS_P2;PMS_P1;PMS_P2;Temp;Humidity;BMP_temperature;BMP_pressure;BME280_temperature;BME280_humidity;BME280_pressure;Samples;Min_cycle;Max_cycle;Signal;HPM_P1;HPM_P2
2022/12/09 00:00:12;;;;;;;6.97;2.65;;;;;;;;;;5037722;28;20516;-62
2022/12/09 00:02:49;;;;;;;7.88;2.63;;;;;;;;;;5030858;28;20058;-62
2022/12/09 00:05:20;;;;;;;5.68;2.72;;;;;;;;;;4997854;28;20062;-62
2022/12/09 00:07:50;;;;;;;7.60;2.35;;;;;;;;;;4996086;28;20057;-62
2022/12/09 00:10:22;;;;;;;4.50;2.22;;;;;;;;;;5030836;28;20449;-62
2022/12/09 00:12:55;;;;;;;8.55;2.65;;;;;;;;;;5029146;28;20045;-62
2022/12/09 00:15:25;;;;;;;6.07;2.80;;;;;;;;;;5030701;28;20056;-62
2022/12/09 00:17:55;;;;;;;8.07;2.65;;;;;;;;;;4998174;28;20548;-62
2022/12/09 00:20:27;;;;;;;6.60;2.75;;;;;;;;;;5030598;28;20061;-62
2022/12/09 00:22:58;;;;;;;13.77;2.92;;;;;;;;;;5030539;28;20052;-62
2022/12/09 00:25:29;;;;;;;6.18;2.80;;;;;;;;;;5030621;28;20048;-62
2022/12/09 00:28:00;;;;;;;6.00;2.70;;;;;;;;;;5030291;28;20088;-62
2022/12/09 00:30:57;;;;;;;7.72;2.40;;;;;;;;;;5010475;28;20057;-63
2022/12/09 00:33:48;;;;;;;5.70;2.47;;;;;;;;;;4971613;28;20057;-62
2022/12/09 00:36:20;;;;;;;12.05;2.90;;;;;;;;;;4920766;28;20048;-62
2022/12/09 00:38:51;;;;;;;8.88;2.17;;;;;;;;;;4920277;28;20419;-62
2022/12/09 00:41:43;;;;;;;4.22;2.60;;;;;;;;;;4894242;29;20059;-63
2022/12/09 00:44:16;;;;;;;9.45;2.65;;;;;;;;;;4931327;29;20060;-62
2022/12/09 00:46:46;;;;;;;4.57;2.63;;;;;;;;;;4891303;29;20052;-63
2022/12/09 00:49:16;;;;;;;6.57;2.53;;;;;;;;;;4932600;29;20210;-63
2022/12/09 00:51:47;;;;;;;6.25;2.00;;;;;;;;;;4932653;29;20067;-62
2022/12/09 00:54:17;;;;;;;8.77;2.70;;;;;;;;;;4878975;29;20061;-62
2022/12/09 00:56:47;;;;;;;6.43;2.80;;;;;;;;;;4844307;29;20072;-62
2022/12/09 00:59:17;;;;;;;8.48;2.85;;;;;;;;;;4875787;29;20568;-62
2022/12/09 01:01:46;;;;;;;5.10;2.17;;;;;;;;;;4845602;29;20430;-62
2022/12/09 01:04:19;;;;;;;7.80;2.90;;;;;;;;;;4827797;29;20494;-62
2022/12/09 01:06:50;;;;;;;9.23;2.95;;;;;;;;;;4875612;29;20053;-62
2022/12/09 01:09:21;;;;;;;9.15;3.20;;;;;;;;;;4876180;29;20057;-62
2022/12/09 01:11:52;;;;;;;9.60;3.00;;;;;;;;;;4901044;29;20063;-62
2022/12/09 01:14:21;;;;;;;7.00;2.72;;;;;;;;;;4902238;29;20532;-62
2022/12/09 01:16:51;;;;;;;7.20;2.35;;;;;;;;;;4899259;29;20060;-62
2022/12/09 01:19:21;;;;;;;5.55;2.65;;;;;;;;;;4935350;29;20055;-62
2022/12/09 01:21:54;;;;;;;4.78;2.53;;;;;;;;;;4951486;29;20059;-62
2022/12/09 01:24:24;;;;;;;6.13;2.08;;;;;;;;;;4951258;28;20176;-62
2022/12/09 01:26:54;;;;;;;5.95;2.90;;;;;;;;;;4951302;28;20055;-63
2022/12/09 01:29:25;;;;;;;5.68;3.30;;;;;;;;;;4951467;29;20768;-62
2022/12/09 01:31:55;;;;;;;5.60;2.78;;;;;;;;;;4944098;28;20054;-62
2022/12/09 01:34:26;;;;;;;8.35;3.03;;;;;;;;;;4954090;28;20057;-62
2022/12/09 01:36:56;;;;;;;9.02;3.50;;;;;;;;;;4950789;29;20526;-62
2022/12/09 01:39:25;;;;;;;5.57;2.80;;;;;;;;;;4950577;29;20058;-62
2022/12/09 01:41:55;;;;;;;6.07;2.60;;;;;;;;;;4922667;29;20665;-62
2022/12/09 01:44:26;;;;;;;8.93;2.95;;;;;;;;;;4883535;29;20052;-62
2022/12/09 01:47:01;;;;;;;5.38;2.80;;;;;;;;;;4918522;28;20051;-62
2022/12/09 01:49:42;;;;;;;8.93;2.80;;;;;;;;;;4969905;28;20059;-62
2022/12/09 01:52:21;;;;;;;8.20;2.65;;;;;;;;;;4969961;28;20086;-62
2022/12/09 01:54:52;;;;;;;10.18;3.22;;;;;;;;;;4988885;28;20054;-62
2022/12/09 01:57:22;;;;;;;5.93;3.25;;;;;;;;;;4989358;28;20054;-62
2022/12/09 01:59:52;;;;;;;5.13;2.90;;;;;;;;;;4969670;28;20050;-62
2022/12/09 02:02:24;;;;;;;7.38;2.90;;;;;;;;;;4950564;28;20054;-62
2022/12/09 02:04:54;;;;;;;6.80;3.38;;;;;;;;;;4930854;29;20066;-62
2022/12/09 02:07:26;;;;;;;7.05;2.67;;;;;;;;;;4969621;28;20605;-62
2022/12/09 02:09:57;;;;;;;4.10;2.17;;;;;;;;;;4909932;28;20052;-62
2022/12/09 02:13:04;;;;;;;11.38;3.97;;;;;;;;;;4912121;29;20063;-62
2022/12/09 02:15:49;;;;;;;6.25;3.00;;;;;;;;;;4950102;28;20879;-62
2022/12/09 02:18:47;;;;;;;5.93;3.17;;;;;;;;;;4931226;29;20067;-62
2022/12/09 02:21:31;;;;;;;6.97;3.10;;;;;;;;;;4944785;29;21541;-62
2022/12/09 02:24:13;;;;;;;9.73;3.28;;;;;;;;;;4949726;29;20070;-62
2022/12/09 02:26:59;;;;;;;7.00;3.42;;;;;;;;;;4954166;28;20783;-62
2022/12/09 02:29:52;;;;;;;5.75;2.72;;;;;;;;;;4949906;29;20535;-62
2022/12/09 02:33:06;;;;;;;7.07;3.28;;;;;;;;;;4930617;29;20047;-62
2022/12/09 02:36:07;;;;;;;7.97;2.78;;;;;;;;;;4867818;29;20083;-62
2022/12/09 02:38:41;;;;;;;5.78;3.17;;;;;;;;;;4839052;29;20054;-62
2022/12/09 02:41:20;;;;;;;9.13;2.92;;;;;;;;;;4820169;29;20435;-62
2022/12/09 02:43:57;;;;;;;11.27;3.50;;;;;;;;;;4818909;29;20050;-62
2022/12/09 02:46:33;;;;;;;8.73;3.50;;;;;;;;;;4837449;29;20054;-62
2022/12/09 02:49:07;;;;;;;6.53;2.88;;;;;;;;;;4855731;29;20045;-62
2022/12/09 02:51:41;;;;;;;11.88;4.22;;;;;;;;;;4840348;29;20069;-62
2022/12/09 02:54:16;;;;;;;8.82;3.40;;;;;;;;;;4855156;29;20049;-62
2022/12/09 02:56:55;;;;;;;6.07;3.00;;;;;;;;;;4851692;29;20054;-62
2022/12/09 02:59:28;;;;;;;7.70;3.30;;;;;;;;;;4868082;29;20053;-63
2022/12/09 03:02:02;;;;;;;8.95;3.40;;;;;;;;;;4863215;29;20068;-62
2022/12/09 03:04:32;;;;;;;6.22;3.95;;;;;;;;;;4845524;29;20443;-62
2022/12/09 03:07:20;;;;;;;7.10;3.17;;;;;;;;;;4838482;29;20065;-62
2022/12/09 03:10:06;;;;;;;7.47;2.70;;;;;;;;;;4818761;29;20058;-62
2022/12/09 03:12:39;;;;;;;4.95;2.88;;;;;;;;;;4857417;29;20055;-62
2022/12/09 03:15:13;;;;;;;5.65;3.40;;;;;;;;;;4905069;29;20567;-62
2022/12/09 03:17:45;;;;;;;8.00;3.55;;;;;;;;;;4896426;29;20060;-63
2022/12/09 03:20:21;;;;;;;6.35;3.05;;;;;;;;;;4933377;29;20439;-62
2022/12/09 03:22:58;;;;;;;7.90;3.42;;;;;;;;;;4953589;29;20055;-62
2022/12/09 03:25:38;;;;;;;5.68;3.08;;;;;;;;;;4975603;28;20498;-62
2022/12/09 03:28:29;;;;;;;8.77;2.60;;;;;;;;;;4992612;28;20800;-62
2022/12/09 03:31:03;;;;;;;6.43;3.28;;;;;;;;;;4946534;28;20065;-62
2022/12/09 03:33:33;;;;;;;8.00;4.15;;;;;;;;;;4995933;28;20053;-62
2022/12/09 03:36:08;;;;;;;6.93;4.57;;;;;;;;;;4998334;28;20054;-62
2022/12/09 03:38:40;;;;;;;8.20;2.88;;;;;;;;;;5071401;28;20447;-63
2022/12/09 03:41:29;;;;;;;11.05;3.40;;;;;;;;;;5071456;28;20048;-62
2022/12/09 03:44:38;;;;;;;8.27;3.80;;;;;;;;;;5037629;28;20052;-63
2022/12/09 03:47:10;;;;;;;9.07;3.67;;;;;;;;;;5055070;28;20044;-62
2022/12/09 03:49:40;;;;;;;5.38;3.17;;;;;;;;;;4989634;28;20048;-62
2022/12/09 03:52:24;;;;;;;7.93;3.22;;;;;;;;;;5071161;28;20048;-62
2022/12/09 03:55:18;;;;;;;7.65;3.25;;;;;;;;;;5064362;28;20067;-62
2022/12/09 03:57:53;;;;;;;7.85;3.75;;;;;;;;;;5096131;28;20043;-62
2022/12/09 04:00:23;;;;;;;6.93;2.78;;;;;;;;;;5061640;28;20586;-62
2022/12/09 04:02:54;;;;;;;4.97;3.13;;;;;;;;;;5113980;28;20044;-62
2022/12/09 04:05:23;;;;;;;5.30;3.47;;;;;;;;;;5114113;28;20056;-62
2022/12/09 04:07:53;;;;;;;5.80;3.08;;;;;;;;;;5113925;28;20052;-62
2022/12/09 04:10:24;;;;;;;9.18;3.80;;;;;;;;;;5113998;28;20059;-63
2022/12/09 04:12:53;;;;;;;8.30;3.70;;;;;;;;;;5050623;28;20131;-62
2022/12/09 04:15:23;;;;;;;4.38;2.58;;;;;;;;;;5018100;28;20408;-62
2022/12/09 04:17:52;;;;;;;6.60;3.38;;;;;;;;;;4994099;28;20050;-62
2022/12/09 04:20:22;;;;;;;7.90;3.13;;;;;;;;;;4978289;28;20054;-62
2022/12/09 04:22:52;;;;;;;5.38;3.25;;;;;;;;;;5010943;28;20069;-62
2022/12/09 04:25:21;;;;;;;9.30;4.63;;;;;;;;;;4978591;28;20062;-62
2022/12/09 04:27:51;;;;;;;9.50;3.45;;;;;;;;;;5010833;28;20054;-62
2022/12/09 04:30:20;;;;;;;6.47;3.30;;;;;;;;;;5010571;28;20065;-62
2022/12/09 04:32:50;;;;;;;4.78;3.05;;;;;;;;;;4977869;28;20061;-62
2022/12/09 04:35:21;;;;;;;6.60;3.58;;;;;;;;;;5010399;28;20485;-62
2022/12/09 04:37:51;;;;;;;5.60;3.15;;;;;;;;;;5010679;28;20061;-62
2022/12/09 04:40:21;;;;;;;7.45;3.10;;;;;;;;;;4990618;28;20054;-63
2022/12/09 04:42:52;;;;;;;6.40;3.30;;;;;;;;;;4990946;28;20063;-62
2022/12/09 04:45:22;;;;;;;6.55;3.30;;;;;;;;;;4990755;28;20063;-63
2022/12/09 04:47:53;;;;;;;6.60;3.30;;;;;;;;;;4991087;28;20061;-62
2022/12/09 04:50:23;;;;;;;7.90;3.05;;;;;;;;;;4979240;28;20469;-62
2022/12/09 04:52:52;;;;;;;5.85;2.70;;;;;;;;;;4974516;28;20438;-63
2022/12/09 04:55:22;;;;;;;8.98;2.55;;;;;;;;;;4977775;28;20058;-62
2022/12/09 04:57:52;;;;;;;7.68;2.72;;;;;;;;;;4951626;29;20055;-63
2022/12/09 05:00:22;;;;;;;6.13;3.20;;;;;;;;;;4952218;28;20558;-63
2022/12/09 05:02:52;;;;;;;8.18;3.60;;;;;;;;;;4971267;28;20067;-63
2022/12/09 05:05:22;;;;;;;6.72;2.90;;;;;;;;;;4970898;28;20063;-62
2022/12/09 05:07:51;;;;;;;7.88;3.45;;;;;;;;;;4970951;28;20218;-62
2022/12/09 05:10:21;;;;;;;6.32;3.50;;;;;;;;;;4939335;28;20058;-63
2022/12/09 05:12:51;;;;;;;7.60;3.33;;;;;;;;;;4971040;28;20063;-62
2022/12/09 05:15:21;;;;;;;8.13;3.30;;;;;;;;;;4922710;28;20058;-62
2022/12/09 05:17:52;;;;;;;6.88;2.70;;;;;;;;;;4979186;28;20538;-63
2022/12/09 05:20:26;;;;;;;5.45;2.72;;;;;;;;;;4990185;28;20054;-62
2022/12/09 05:22:56;;;;;;;8.35;2.88;;;;;;;;;;4944723;28;20065;-62
2022/12/09 05:25:32;;;;;;;11.60;3.25;;;;;;;;;;4990189;28;20061;-62
2022/12/09 05:28:02;;;;;;;5.28;3.03;;;;;;;;;;4942023;28;20054;-62
2022/12/09 05:30:32;;;;;;;10.00;3.85;;;;;;;;;;4949985;28;20487;-63
2022/12/09 05:33:02;;;;;;;5.60;3.40;;;;;;;;;;4951348;29;20454;-62
2022/12/09 05:35:32;;;;;;;7.70;3.20;;;;;;;;;;4954282;28;20050;-62
2022/12/09 05:38:17;;;;;;;7.93;3.17;;;;;;;;;;4964231;28;20588;-63
2022/12/09 05:40:47;;;;;;;9.65;3.40;;;;;;;;;;5029038;28;20099;-63
2022/12/09 05:43:17;;;;;;;6.35;3.58;;;;;;;;;;5029259;28;20068;-62
2022/12/09 05:45:47;;;;;;;12.85;3.40;;;;;;;;;;4979472;28;20060;-62
2022/12/09 05:48:16;;;;;;;8.20;2.63;;;;;;;;;;5028925;28;20061;-62
2022/12/09 05:50:59;;;;;;;7.22;3.63;;;;;;;;;;5028692;28;20053;-62
2022/12/09 05:53:30;;;;;;;9.75;3.78;;;;;;;;;;5008964;28;20054;-62
2022/12/09 05:56:00;;;;;;;6.30;2.83;;;;;;;;;;5008336;28;20062;-62
2022/12/09 05:58:30;;;;;;;8.90;3.50;;;;;;;;;;4992523;28;20061;-62
2022/12/09 06:01:05;;;;;;;12.85;2.95;;;;;;;;;;4992694;28;20062;-62
2022/12/09 06:03:36;;;;;;;7.78;3.10;;;;;;;;;;4976515;28;20072;-63
2022/12/09 06:06:12;;;;;;;8.20;3.30;;;;;;;;;;4976151;28;20054;-62
2022/12/09 06:08:43;;;;;;;6.00;3.25;;;;;;;;;;5034688;28;20052;-63
2022/12/09 06:11:17;;;;;;;5.72;2.65;;;;;;;;;;5052369;28;20060;-63
2022/12/09 06:13:50;;;;;;;7.70;2.55;;;;;;;;;;5068557;28;20429;-63
2022/12/09 06:16:21;;;;;;;14.35;3.63;;;;;;;;;;5021849;28;20049;-62
2022/12/09 06:18:51;;;;;;;8.57;2.90;;;;;;;;;;5048482;28;20108;-63
2022/12/09 06:21:23;;;;;;;14.02;3.40;;;;;;;;;;5048227;28;20056;-63
2022/12/09 06:23:54;;;;;;;6.15;3.00;;;;;;;;;;5010246;28;20051;-63
2022/12/09 06:26:27;;;;;;;7.30;2.60;;;;;;;;;;5111084;28;20044;-63
2022/12/09 06:28:58;;;;;;;8.48;3.83;;;;;;;;;;5111389;28;20036;-63
2022/12/09 06:31:28;;;;;;;8.52;4.60;;;;;;;;;;5111489;28;20070;-63
2022/12/09 06:34:00;;;;;;;6.30;2.97;;;;;;;;;;5075218;28;20558;-63
2022/12/09 06:36:31;;;;;;;11.98;2.97;;;;;;;;;;5009399;28;20513;-63
2022/12/09 06:39:02;;;;;;;9.55;3.40;;;;;;;;;;5111520;28;20040;-62
2022/12/09 06:41:42;;;;;;;9.60;3.47;;;;;;;;;;5075096;28;20470;-63
2022/12/09 06:44:12;;;;;;;7.57;3.45;;;;;;;;;;5111555;28;20048;-62
2022/12/09 06:46:51;;;;;;;6.85;2.90;;;;;;;;;;5111598;28;20040;-62
2022/12/09 06:49:22;;;;;;;12.75;3.47;;;;;;;;;;5110994;28;20047;-63
2022/12/09 06:51:52;;;;;;;6.45;2.92;;;;;;;;;;5093116;28;20043;-63
2022/12/09 06:54:24;;;;;;;6.13;2.97;;;;;;;;;;5111625;28;20047;-62
2022/12/09 06:56:55;;;;;;;9.23;3.33;;;;;;;;;;5110496;28;20051;-62
2022/12/09 06:59:25;;;;;;;7.85;3.33;;;;;;;;;;5075163;28;20052;-63
2022/12/09 07:01:55;;;;;;;6.75;3.08;;;;;;;;;;5111252;28;20039;-62
2022/12/09 07:04:25;;;;;;;8.57;3.55;;;;;;;;;;5074910;28;20056;-62
2022/12/09 07:06:55;;;;;;;10.02;3.53;;;;;;;;;;5111200;28;20096;-63
2022/12/09 07:09:26;;;;;;;10.52;3.78;;;;;;;;;;5110935;28;20446;-63
2022/12/09 07:11:56;;;;;;;7.00;3.65;;;;;;;;;;5111085;28;20050;-63
2022/12/09 07:14:26;;;;;;;8.75;3.80;;;;;;;;;;5043462;28;20051;-63
2022/12/09 07:16:56;;;;;;;7.47;3.30;;;;;;;;;;5091606;28;20064;-63
2022/12/09 07:19:26;;;;;;;5.88;3.35;;;;;;;;;;5074993;28;20059;-63
2022/12/09 07:21:56;;;;;;;7.38;3.50;;;;;;;;;;5110703;28;20050;-63
2022/12/09 07:24:26;;;;;;;10.95;3.65;;;;;;;;;;5074642;28;20047;-63
2022/12/09 07:26:56;;;;;;;8.40;3.22;;;;;;;;;;5058158;28;20059;-63
2022/12/09 07:29:34;;;;;;;10.07;2.83;;;;;;;;;;5110855;28;20415;-63
2022/12/09 07:32:06;;;;;;;11.48;3.47;;;;;;;;;;5067398;28;20492;-63
2022/12/09 07:34:37;;;;;;;4.82;3.00;;;;;;;;;;5051482;28;20059;-63
2022/12/09 07:37:07;;;;;;;8.35;3.75;;;;;;;;;;5067551;28;20052;-63
2022/12/09 07:39:38;;;;;;;7.85;3.40;;;;;;;;;;5067268;28;20044;-63
2022/12/09 07:42:08;;;;;;;8.85;3.67;;;;;;;;;;5067583;28;20064;-63
2022/12/09 07:44:49;;;;;;;8.68;3.33;;;;;;;;;;5016874;28;20449;-63
2022/12/09 07:47:19;;;;;;;5.85;3.22;;;;;;;;;;5047474;28;20413;-63
2022/12/09 07:49:49;;;;;;;6.72;3.80;;;;;;;;;;5047355;28;20072;-63
2022/12/09 07:52:19;;;;;;;7.35;3.90;;;;;;;;;;4998185;28;20084;-63
2022/12/09 07:54:49;;;;;;;4.82;2.45;;;;;;;;;;5051443;28;20624;-62
2022/12/09 07:57:19;;;;;;;6.88;3.53;;;;;;;;;;5030466;28;20548;-63
2022/12/09 07:59:49;;;;;;;11.40;3.60;;;;;;;;;;5031053;28;20054;-62
2022/12/09 08:02:19;;;;;;;10.25;3.53;;;;;;;;;;5034545;28;20065;-62
2022/12/09 08:04:49;;;;;;;7.47;3.33;;;;;;;;;;5037289;28;20431;-63
2022/12/09 08:07:20;;;;;;;7.15;3.80;;;;;;;;;;5037129;28;20512;-63
2022/12/09 08:09:50;;;;;;;8.27;3.33;;;;;;;;;;5037249;28;20048;-63
2022/12/09 08:12:20;;;;;;;9.35;3.47;;;;;;;;;;5030625;28;20461;-63
2022/12/09 08:14:50;;;;;;;9.80;3.70;;;;;;;;;;4997775;28;20054;-62
2022/12/09 08:17:20;;;;;;;16.90;4.65;;;;;;;;;;5013765;28;20057;-62
2022/12/09 08:19:51;;;;;;;13.23;4.10;;;;;;;;;;5030751;28;20053;-63
2022/12/09 08:22:22;;;;;;;41.97;5.53;;;;;;;;;;4998375;28;20194;-63
2022/12/09 08:24:52;;;;;;;18.88;4.82;;;;;;;;;;5030796;28;20086;-62
2022/12/09 08:27:22;;;;;;;25.83;4.78;;;;;;;;;;4981560;28;20065;-62
2022/12/09 08:29:52;;;;;;;26.77;4.65;;;;;;;;;;5030412;28;20057;-62
2022/12/09 08:32:21;;;;;;;24.52;4.47;;;;;;;;;;5030528;28;20045;-62
2022/12/09 08:34:52;;;;;;;27.55;4.25;;;;;;;;;;5048616;28;20376;-62
2022/12/09 08:37:22;;;;;;;22.77;4.18;;;;;;;;;;5070276;28;20064;-63
2022/12/09 08:39:52;;;;;;;14.27;4.10;;;;;;;;;;5020486;28;20055;-62
2022/12/09 08:42:22;;;;;;;16.23;4.10;;;;;;;;;;5037416;28;20511;-63
2022/12/09 08:44:51;;;;;;;18.92;4.30;;;;;;;;;;5070100;28;20049;-62
2022/12/09 08:47:29;;;;;;;17.45;3.90;;;;;;;;;;5070264;28;20048;-62
2022/12/09 08:49:59;;;;;;;24.98;4.85;;;;;;;;;;5091931;28;20063;-62
2022/12/09 08:52:30;;;;;;;32.20;6.25;;;;;;;;;;5113670;28;20044;-63
2022/12/09 08:55:08;;;;;;;15.13;4.03;;;;;;;;;;5096563;28;20491;-63
2022/12/09 08:57:39;;;;;;;22.17;4.45;;;;;;;;;;5112891;28;20059;-63
2022/12/09 09:00:09;;;;;;;20.75;5.15;;;;;;;;;;5113022;28;20487;-63
2022/12/09 09:02:39;;;;;;;17.90;4.32;;;;;;;;;;5113065;28;20581;-63
2022/12/09 09:05:09;;;;;;;14.00;3.80;;;;;;;;;;5058670;28;20051;-63
2022/12/09 09:08:10;;;;;;;34.13;4.18;;;;;;;;;;5112880;28;20042;-63
2022/12/09 09:10:41;;;;;;;14.43;3.92;;;;;;;;;;5112712;28;20050;-62
2022/12/09 09:13:11;;;;;;;22.98;4.00;;;;;;;;;;5113086;28;20581;-62
2022/12/09 09:15:41;;;;;;;20.05;3.47;;;;;;;;;;5095150;28;20063;-63
2022/12/09 09:18:12;;;;;;;9.00;3.97;;;;;;;;;;5112680;28;20501;-62
2022/12/09 09:20:47;;;;;;;13.82;3.85;;;;;;;;;;5112796;28;20044;-62
2022/12/09 09:23:18;;;;;;;8.48;3.08;;;;;;;;;;5112550;28;20046;-62
2022/12/09 09:25:49;;;;;;;19.48;4.00;;;;;;;;;;5076954;28;20082;-63
2022/12/09 09:28:19;;;;;;;10.65;3.55;;;;;;;;;;5112405;28;20402;-63
2022/12/09 09:31:01;;;;;;;17.23;4.18;;;;;;;;;;5045954;28;20051;-62
2022/12/09 09:33:33;;;;;;;11.23;4.38;;;;;;;;;;5112341;28;20051;-62
2022/12/09 09:36:06;;;;;;;14.55;4.10;;;;;;;;;;5112460;28;20047;-63
2022/12/09 09:38:39;;;;;;;8.88;2.67;;;;;;;;;;5112428;28;20051;-62
2022/12/09 09:41:47;;;;;;;6.82;3.38;;;;;;;;;;5112164;28;20035;-62
2022/12/09 09:44:30;;;;;;;11.02;3.47;;;;;;;;;;5029040;28;20080;-62
2022/12/09 09:47:11;;;;;;;9.77;2.90;;;;;;;;;;4995984;28;20448;-63
2022/12/09 09:49:59;;;;;;;11.57;3.50;;;;;;;;;;5028835;28;20053;-63
2022/12/09 09:52:31;;;;;;;6.10;2.65;;;;;;;;;;4995899;28;20139;-63
2022/12/09 09:55:17;;;;;;;6.35;2.85;;;;;;;;;;5028590;28;20057;-63
2022/12/09 09:58:09;;;;;;;5.80;3.72;;;;;;;;;;4995918;28;20057;-63
2022/12/09 10:01:07;;;;;;;5.30;2.92;;;;;;;;;;5028877;28;20037;-63
2022/12/09 10:03:46;;;;;;;11.15;3.72;;;;;;;;;;4969950;28;20691;-63
2022/12/09 10:06:31;;;;;;;6.63;3.22;;;;;;;;;;4931525;29;20052;-63
2022/12/09 10:09:37;;;;;;;4.82;2.63;;;;;;;;;;4947266;29;20124;-63
2022/12/09 10:12:23;;;;;;;7.30;3.13;;;;;;;;;;4874890;29;20057;-63
2022/12/09 10:15:15;;;;;;;6.65;3.53;;;;;;;;;;4859219;29;20061;-63
2022/12/09 10:17:51;;;;;;;6.53;3.03;;;;;;;;;;4874783;29;20053;-63
2022/12/09 10:20:32;;;;;;;10.73;2.80;;;;;;;;;;4876120;29;20061;-63
2022/12/09 10:23:10;;;;;;;4.80;3.08;;;;;;;;;;4918703;29;20051;-63
2022/12/09 10:25:52;;;;;;;4.05;2.97;;;;;;;;;;4903762;29;20059;-63
2022/12/09 10:28:33;;;;;;;4.07;2.28;;;;;;;;;;4950166;29;20463;-63
2022/12/09 10:31:04;;;;;;;8.30;2.45;;;;;;;;;;4950288;29;20047;-63
2022/12/09 10:33:37;;;;;;;6.10;2.95;;;;;;;;;;4950281;29;20069;-64
2022/12/09 10:36:25;;;;;;;5.82;2.83;;;;;;;;;;4950128;29;20082;-63
2022/12/09 10:39:04;;;;;;;10.85;3.00;;;;;;;;;;4950283;29;20059;-63
2022/12/09 10:44:47;;;;;;;9.13;2.72;;;;;;;;;;4966103;28;20061;-63
2022/12/09 10:47:29;;;;;;;6.22;3.42;;;;;;;;;;5027856;28;20057;-63
2022/12/09 10:50:00;;;;;;;5.70;1.88;;;;;;;;;;5099872;28;20079;-63
2022/12/09 10:52:42;;;;;;;10.32;2.90;;;;;;;;;;5010504;28;20048;-63
2022/12/09 10:55:44;;;;;;;3.67;2.17;;;;;;;;;;5110720;28;20042;-63
2022/12/09 10:58:20;;;;;;;3.25;1.70;;;;;;;;;;5047718;28;20045;-63
2022/12/09 11:01:08;;;;;;;3.55;1.73;;;;;;;;;;4983620;28;20053;-63
2022/12/09 11:03:53;;;;;;;4.10;2.35;;;;;;;;;;5048021;28;20544;-63
2022/12/09 11:06:38;;;;;;;7.20;2.45;;;;;;;;;;5015669;28;20057;-63
2022/12/09 11:09:21;;;;;;;5.50;1.65;;;;;;;;;;5047990;28;20068;-63
2022/12/09 11:11:53;;;;;;;5.97;2.40;;;;;;;;;;5047833;28;20057;-63
2022/12/09 11:14:39;;;;;;;4.05;1.73;;;;;;;;;;5047701;28;20045;-63
2022/12/09 11:17:24;;;;;;;3.17;1.63;;;;;;;;;;5014620;28;20049;-64
2022/12/09 11:20:15;;;;;;;4.45;2.03;;;;;;;;;;4999689;28;20064;-64
2022/12/09 11:23:18;;;;;;;5.65;2.33;;;;;;;;;;4936878;28;20066;-64
2022/12/09 11:25:55;;;;;;;6.32;2.10;;;;;;;;;;4952699;28;20124;-64
2022/12/09 11:28:37;;;;;;;6.40;2.50;;;;;;;;;;4955414;28;20058;-64
2022/12/09 11:31:19;;;;;;;4.75;2.53;;;;;;;;;;4972897;28;20046;-64
2022/12/09 11:34:04;;;;;;;4.38;2.00;;;;;;;;;;4940191;28;20050;-64
2022/12/09 11:36:41;;;;;;;4.85;2.30;;;;;;;;;;5002427;28;20053;-64
2022/12/09 11:39:31;;;;;;;3.50;1.75;;;;;;;;;;5031685;28;20444;-64
2022/12/09 11:42:16;;;;;;;3.47;2.55;;;;;;;;;;4998794;28;20169;-64
2022/12/09 11:45:03;;;;;;;2.35;1.25;;;;;;;;;;4998405;28;20053;-64
2022/12/09 11:47:38;;;;;;;2.55;1.42;;;;;;;;;;5014650;28;20060;-64
2022/12/09 11:50:31;;;;;;;6.55;2.00;;;;;;;;;;5031637;28;20045;-64
2022/12/09 11:53:23;;;;;;;3.30;1.85;;;;;;;;;;4998690;28;20537;-64
2022/12/09 11:55:59;;;;;;;7.15;2.35;;;;;;;;;;5014152;28;20598;-64
2022/12/09 11:59:01;;;;;;;5.88;1.80;;;;;;;;;;5031345;28;20056;-64
2022/12/09 12:01:51;;;;;;;4.32;1.70;;;;;;;;;;5051080;28;20401;-64
2022/12/09 12:05:01;;;;;;;5.65;2.10;;;;;;;;;;5050739;28;20048;-64
2022/12/09 12:08:04;;;;;;;4.65;1.80;;;;;;;;;;4956443;28;20067;-64
2022/12/09 12:10:52;;;;;;;2.63;1.73;;;;;;;;;;4917514;29;20083;-64
2022/12/09 12:13:27;;;;;;;6.22;2.15;;;;;;;;;;4933945;29;20071;-64
2022/12/09 12:16:12;;;;;;;4.97;1.95;;;;;;;;;;4917441;29;20059;-64
2022/12/09 12:18:45;;;;;;;4.57;2.00;;;;;;;;;;4917539;29;20060;-64
2022/12/09 12:21:43;;;;;;;4.70;1.70;;;;;;;;;;4917573;29;20071;-64
2022/12/09 12:24:20;;;;;;;6.45;2.05;;;;;;;;;;4895318;29;20122;-64
2022/12/09 12:27:22;;;;;;;3.53;1.52;;;;;;;;;;4895519;29;20052;-64
2022/12/09 12:29:57;;;;;;;;;;;;;;;;;;4895875;29;20086;-64
2022/12/09 12:32:48;;;;;;;3.67;1.88;;;;;;;;;;4864475;29;19923;-65
2022/12/09 12:35:37;;;;;;;7.38;2.92;;;;;;;;;;5133960;27;20450;-66
2022/12/09 12:38:40;;;;;;;3.22;1.50;;;;;;;;;;5068134;28;20382;-65
2022/12/09 12:41:22;;;;;;;6.03;1.58;;;;;;;;;;5068132;28;20047;-65
2022/12/09 12:47:29;;;;;;;10.43;1.55;;;;;;;;;;5065474;28;20053;-65
2022/12/09 12:50:26;;;;;;;3.47;1.65;;;;;;;;;;5015574;28;20056;-65
2022/12/09 12:53:43;;;;;;;2.15;1.85;;;;;;;;;;5051560;28;20049;-65
2022/12/09 12:56:23;;;;;;;3.42;1.40;;;;;;;;;;4991825;28;20061;-65
2022/12/09 12:59:22;;;;;;;2.50;1.90;;;;;;;;;;5025198;28;20050;-65
2022/12/09 13:01:56;;;;;;;3.20;1.65;;;;;;;;;;5025115;28;20058;-65
2022/12/09 13:05:04;;;;;;;3.05;1.48;;;;;;;;;;5025024;28;20061;-65
2022/12/09 13:07:50;;;;;;;3.67;1.67;;;;;;;;;;4969725;28;20050;-64
2022/12/09 13:10:41;;;;;;;2.42;1.40;;;;;;;;;;4986140;28;20046;-65
2022/12/09 13:13:21;;;;;;;2.42;1.60;;;;;;;;;;4985594;28;20065;-65
2022/12/09 13:15:56;;;;;;;2.60;1.33;;;;;;;;;;4937801;28;20574;-64
2022/12/09 13:18:35;;;;;;;1.85;1.52;;;;;;;;;;4985617;28;20060;-64
2022/12/09 13:21:07;;;;;;;2.45;1.35;;;;;;;;;;4953850;28;20058;-64
2022/12/09 13:24:09;;;;;;;5.43;1.50;;;;;;;;;;4980531;28;20047;-65
2022/12/09 13:26:41;;;;;;;2.03;1.50;;;;;;;;;;4982094;28;20051;-64
2022/12/09 13:29:33;;;;;;;1.60;1.40;;;;;;;;;;4966103;28;20507;-65
2022/12/09 13:32:03;;;;;;;4.10;1.27;;;;;;;;;;4972380;28;20178;-65
2022/12/09 13:34:40;;;;;;;3.28;1.20;;;;;;;;;;5004682;28;20421;-65
2022/12/09 13:37:33;;;;;;;3.50;1.65;;;;;;;;;;5038100;28;20050;-64
2022/12/09 13:40:29;;;;;;;2.28;1.70;;;;;;;;;;5004754;28;20145;-65
2022/12/09 13:43:02;;;;;;;2.92;1.58;;;;;;;;;;4985194;28;20062;-64
2022/12/09 13:45:36;;;;;;;4.35;1.10;;;;;;;;;;4998751;28;20748;-64
2022/12/09 13:48:12;;;;;;;5.57;1.80;;;;;;;;;;4991709;28;20055;-64
2022/12/09 13:50:54;;;;;;;2.25;1.35;;;;;;;;;;4975077;28;20058;-65
2022/12/09 13:53:33;;;;;;;4.72;1.52;;;;;;;;;;4943344;28;20065;-64
2022/12/09 13:56:17;;;;;;;4.45;1.35;;;;;;;;;;4974911;28;20050;-64
2022/12/09 13:59:14;;;;;;;3.72;1.85;;;;;;;;;;4991353;28;20548;-65
2022/12/09 14:01:53;;;;;;;2.22;1.42;;;;;;;;;;4965021;28;20059;-65
2022/12/09 14:04:30;;;;;;;1.90;1.55;;;;;;;;;;4958923;28;20042;-65
2022/12/09 14:07:13;;;;;;;3.17;1.60;;;;;;;;;;4974875;28;20070;-65
2022/12/09 14:09:52;;;;;;;4.20;1.45;;;;;;;;;;4991297;28;20061;-66
2022/12/09 14:12:25;;;;;;;2.85;1.80;;;;;;;;;;4991267;28;20154;-65
2022/12/09 14:15:20;;;;;;;4.25;1.77;;;;;;;;;;4991058;28;20046;-64
2022/12/09 14:17:50;;;;;;;2.05;1.60;;;;;;;;;;4898143;29;20067;-65
2022/12/09 14:20:23;;;;;;;1.85;1.60;;;;;;;;;;4936492;29;20062;-64
2022/12/09 14:23:10;;;;;;;4.22;1.73;;;;;;;;;;4904821;29;20063;-65
2022/12/09 14:25:54;;;;;;;5.68;1.50;;;;;;;;;;4952103;29;20047;-65
2022/12/09 14:28:39;;;;;;;2.13;1.50;;;;;;;;;;4952334;29;20059;-65
2022/12/09 14:31:09;;;;;;;3.08;1.60;;;;;;;;;;4935524;29;20066;-65
2022/12/09 14:33:45;;;;;;;3.28;1.70;;;;;;;;;;4920168;29;20059;-65
2022/12/09 14:36:15;;;;;;;1.88;1.65;;;;;;;;;;4951720;29;20544;-65
2022/12/09 14:39:17;;;;;;;1.73;1.55;;;;;;;;;;4951988;29;20074;-65
2022/12/09 14:42:01;;;;;;;4.57;1.83;;;;;;;;;;4885615;29;20056;-64
2022/12/09 14:44:32;;;;;;;1.48;1.38;;;;;;;;;;4885216;29;20091;-64
2022/12/09 14:47:22;;;;;;;3.40;1.60;;;;;;;;;;4932805;29;20657;-65
2022/12/09 14:49:55;;;;;;;3.13;1.63;;;;;;;;;;4901119;29;20071;-64
2022/12/09 14:52:31;;;;;;;7.18;2.00;;;;;;;;;;4917050;29;20059;-65
2022/12/09 14:55:07;;;;;;;2.08;1.73;;;;;;;;;;4912323;28;20055;-65
2022/12/09 14:57:44;;;;;;;3.03;1.65;;;;;;;;;;4989370;28;20045;-65
2022/12/09 15:00:57;;;;;;;3.15;1.85;;;;;;;;;;4942170;28;20066;-65
2022/12/09 15:03:29;;;;;;;3.97;2.10;;;;;;;;;;4913391;29;20107;-65
2022/12/09 15:06:16;;;;;;;1.77;1.00;;;;;;;;;;4913109;29;20417;-65
2022/12/09 15:08:47;;;;;;;2.58;1.48;;;;;;;;;;4913562;29;20048;-65
2022/12/09 15:11:22;;;;;;;1.75;1.50;;;;;;;;;;4882256;29;20060;-65
2022/12/09 15:14:25;;;;;;;3.85;2.47;;;;;;;;;;4913135;29;20064;-62
2022/12/09 15:16:47;;;;;;;3.40;2.17;;;;;;;;;;4866222;29;20059;-63
2022/12/09 15:19:24;;;;;;;3.35;1.67;;;;;;;;;;4924191;29;20058;-62
2022/12/09 15:22:21;;;;;;;2.28;1.60;;;;;;;;;;4950962;29;20055;-62
2022/12/09 15:24:52;;;;;;;3.90;1.63;;;;;;;;;;4951072;29;20172;-62
2022/12/09 15:27:26;;;;;;;3.17;1.85;;;;;;;;;;4919465;29;20051;-62
2022/12/09 15:29:57;;;;;;;3.28;1.73;;;;;;;;;;4934926;29;20062;-62
2022/12/09 15:32:30;;;;;;;2.45;2.25;;;;;;;;;;4951205;29;20063;-63
2022/12/09 15:35:22;;;;;;;3.58;1.90;;;;;;;;;;4934895;29;20051;-63
2022/12/09 15:37:57;;;;;;;2.30;1.83;;;;;;;;;;4953288;28;20058;-63
2022/12/09 15:40:30;;;;;;;8.68;2.03;;;;;;;;;;4980068;28;20054;-62
2022/12/09 15:43:07;;;;;;;3.25;2.22;;;;;;;;;;5028548;28;20050;-62
2022/12/09 15:45:41;;;;;;;4.53;2.13;;;;;;;;;;5013106;28;20157;-62